createdAt,value
2018-06-08T00:02:32.411Z,5.95
2018-06-08T00:08:05.959Z,6.11
2018-06-08T00:14:00.927Z,6.73
2018-06-08T00:19:55.984Z,6.6
2018-06-08T00:25:50.966Z,6.46
2018-06-08T00:31:46.264Z,6.17
2018-06-08T00:37:40.963Z,6.11
2018-06-08T00:43:35.984Z,6.67
2018-06-08T00:49:30.992Z,6.14
2018-06-08T00:55:26.027Z,6.13
2018-06-08T01:01:28.006Z,6.45
2018-06-08T01:07:16.035Z,6.75
2018-06-08T01:14:14.139Z,6.32
2018-06-08T01:20:24.175Z,6.34
2018-06-08T01:30:55.986Z,7.57
2018-06-08T01:36:50.987Z,6.57
2018-06-08T01:42:46.064Z,6.93
2018-06-08T01:48:41.005Z,5.77
2018-06-08T01:54:36.000Z,4.81
2018-06-08T02:00:31.052Z,4.51
2018-06-08T02:06:26.059Z,5.48
2018-06-08T02:18:16.041Z,3.81
2018-06-08T02:20:19.808Z,3.99
2018-06-08T02:24:11.062Z,4.27
2018-06-08T02:30:06.031Z,4.64
2018-06-08T02:36:01.046Z,4.46
2018-06-08T02:41:56.018Z,4.47
2018-06-08T02:47:51.041Z,5.85
2018-06-08T02:53:46.050Z,5.1
2018-06-08T02:59:41.050Z,5.57
2018-06-08T03:05:36.055Z,5.64
2018-06-08T03:11:31.094Z,5.41
2018-06-08T03:17:26.036Z,6.14
2018-06-08T03:23:21.032Z,5.45
2018-06-08T03:29:16.181Z,5.68
2018-06-08T03:35:11.080Z,5.32
2018-06-08T03:41:06.075Z,4.99
2018-06-08T03:47:01.058Z,5.92
2018-06-08T03:52:56.096Z,5.41
2018-06-08T03:58:51.083Z,5.43
2018-06-08T04:04:46.127Z,5.5
2018-06-08T04:10:41.172Z,5.5
2018-06-08T04:16:36.110Z,5.72
2018-06-08T04:22:31.081Z,6.06
2018-06-08T04:28:26.164Z,6.22
2018-06-08T04:35:20.667Z,6.75
2018-06-08T04:40:16.112Z,6.28
2018-06-08T04:46:11.142Z,5.88
2018-06-08T04:52:06.145Z,6.23
2018-06-08T04:58:01.142Z,6.6
2018-06-08T05:03:56.506Z,6.43
2018-06-08T05:09:51.160Z,6.14
2018-06-08T05:15:46.106Z,5.04
2018-06-08T05:21:41.146Z,4.81
2018-06-08T05:27:36.159Z,5.83
2018-06-08T05:33:31.103Z,5.54
2018-06-08T05:39:26.171Z,5.32
2018-06-08T05:45:21.163Z,5.57
2018-06-08T05:51:16.157Z,5.28
2018-06-08T05:57:11.141Z,5.38
2018-06-08T06:03:06.176Z,4.99
2018-06-08T06:09:01.184Z,4.96
2018-06-08T06:14:56.217Z,5.23
2018-06-08T06:20:51.204Z,5.32
2018-06-08T06:26:46.180Z,5.54
2018-06-08T06:32:41.225Z,5.23
2018-06-08T06:38:36.185Z,5.17
2018-06-08T06:44:31.169Z,4.9
2018-06-08T06:50:26.227Z,5.05
2018-06-08T06:56:21.239Z,4.56
2018-06-08T07:02:16.211Z,4.71
2018-06-08T07:08:11.248Z,7.99
2018-06-08T07:14:06.189Z,6.74
2018-06-08T07:20:01.179Z,6.4
2018-06-08T07:25:56.237Z,7.16
2018-06-08T07:31:51.197Z,6.98
2018-06-08T07:37:46.336Z,5.7
2018-06-08T07:43:41.276Z,5.87
2018-06-08T07:49:36.243Z,5.13
2018-06-08T07:55:31.198Z,5.48
2018-06-08T08:01:26.208Z,3.88
2018-06-08T08:07:21.239Z,3.8
2018-06-08T08:13:16.226Z,5.07
2018-06-08T08:19:11.253Z,3.88
2018-06-08T08:25:06.235Z,3.83
2018-06-08T08:31:01.337Z,3.68
2018-06-08T08:36:56.420Z,3.67
2018-06-08T08:42:51.239Z,3.59
2018-06-08T08:48:46.219Z,4.15
2018-06-08T08:54:41.241Z,3.61
2018-06-08T09:00:36.262Z,3.2
2018-06-08T09:06:31.261Z,3.41
2018-06-08T09:12:26.315Z,3.51
2018-06-08T09:18:21.317Z,2.91
2018-06-08T09:24:16.346Z,3.65
2018-06-08T09:30:11.300Z,3.36
2018-06-08T09:36:06.274Z,2.75
2018-06-08T09:42:01.303Z,3.27
2018-06-08T09:47:56.279Z,3.82
2018-06-08T09:53:52.227Z,3.62
2018-06-08T09:59:46.283Z,3.71
2018-06-08T10:05:41.519Z,3.41
2018-06-08T10:11:36.614Z,3.66
2018-06-08T10:17:31.382Z,3.36
2018-06-08T10:23:26.329Z,3.56
2018-06-08T10:29:26.608Z,3.54
2018-06-08T10:35:16.288Z,2.84
2018-06-08T10:41:12.004Z,2.87
2018-06-08T10:47:06.304Z,3.13
2018-06-08T10:53:01.569Z,3.3
2018-06-08T10:58:56.350Z,2.77
2018-06-08T11:04:51.360Z,2.98
2018-06-08T11:10:46.590Z,2.48
2018-06-08T11:16:41.387Z,2.85
2018-06-08T11:22:36.378Z,2.54
2018-06-08T11:28:31.335Z,2.51
2018-06-08T11:34:26.326Z,2.49
2018-06-08T11:40:21.368Z,2.39
2018-06-08T11:46:16.365Z,2.63
2018-06-08T11:52:11.752Z,2.34
2018-06-08T11:58:06.370Z,2.15
2018-06-08T12:09:56.347Z,2.67
2018-06-08T12:15:51.654Z,2.47
2018-06-08T12:21:46.932Z,2.05
2018-06-08T12:27:41.511Z,1.81
2018-06-08T12:33:36.440Z,1.88
2018-06-08T12:39:32.068Z,1.76
2018-06-08T12:45:26.387Z,1.68
2018-06-08T12:51:21.419Z,1.62
2018-06-08T12:57:16.861Z,2.05
2018-06-08T13:03:11.443Z,1.93
2018-06-08T13:09:06.412Z,1.85
2018-06-08T13:15:01.407Z,3.11
2018-06-08T13:20:56.415Z,2.98
2018-06-08T13:26:51.407Z,3.04
2018-06-08T13:32:47.007Z,2.72
2018-06-08T13:38:41.508Z,2.63
2018-06-08T13:44:36.566Z,3.58
2018-06-08T13:50:31.507Z,3.9
2018-06-08T13:56:26.417Z,3.79
2018-06-08T14:02:21.440Z,4.53
2018-06-08T14:08:16.934Z,3.23
2018-06-08T14:14:11.404Z,3.57
2018-06-08T14:20:08.296Z,4.64
2018-06-08T14:26:01.456Z,3.93
2018-06-08T14:31:56.465Z,3.25
2018-06-08T14:37:51.447Z,3.8
2018-06-08T14:43:46.449Z,4.09
2018-06-08T14:49:41.462Z,4.21
2018-06-08T14:55:36.491Z,2.96
2018-06-08T15:01:31.455Z,2.69
2018-06-08T15:07:28.239Z,2.83
2018-06-08T15:13:21.452Z,3.02
2018-06-08T15:25:12.758Z,2.67
2018-06-08T15:31:06.543Z,2.77
2018-06-08T15:37:01.548Z,2.86
2018-06-08T15:42:56.527Z,4.55
2018-06-08T15:48:51.520Z,3.78
2018-06-08T15:54:46.472Z,3.56
2018-06-08T16:00:41.500Z,3.58
2018-06-08T16:06:36.656Z,3.45
2018-06-08T16:12:31.946Z,3.11
2018-06-08T16:18:26.531Z,3.17
2018-06-08T16:24:21.542Z,2.9
2018-06-08T16:30:16.557Z,3.35
2018-06-08T16:36:11.566Z,3.73
2018-06-08T16:42:06.514Z,3.47
2018-06-08T16:48:01.509Z,3.76
2018-06-08T16:53:56.592Z,3.37
2018-06-08T16:59:51.749Z,2.96
2018-06-08T17:05:46.589Z,3.16
2018-06-08T17:11:41.559Z,3.03
2018-06-08T17:17:36.510Z,2.96
2018-06-08T17:23:31.548Z,2.83
2018-06-08T17:29:26.579Z,2.78
2018-06-08T17:35:22.510Z,1.99
2018-06-08T17:41:16.811Z,2.1
2018-06-08T17:47:11.582Z,1.96
2018-06-08T17:53:06.577Z,2.78
2018-06-08T17:59:01.550Z,2.43
2018-06-08T18:04:56.729Z,2.22
2018-06-08T18:10:53.199Z,2.4
2018-06-08T18:16:46.584Z,2.92
2018-06-08T18:22:42.787Z,2.96
2018-06-08T18:28:36.546Z,2.84
2018-06-08T18:34:31.556Z,3.32
2018-06-08T18:40:27.414Z,3.23
2018-06-08T18:46:21.641Z,3.08
2018-06-08T18:52:16.731Z,3.14
2018-06-08T18:58:12.098Z,3.8
2018-06-08T19:04:07.999Z,3.71
2018-06-08T19:10:02.360Z,2.67
2018-06-08T19:15:56.616Z,2.99
2018-06-08T19:21:52.116Z,3.1
2018-06-08T19:27:46.642Z,3.13
2018-06-08T19:33:41.644Z,3.83
2018-06-08T19:39:36.620Z,3.66
2018-06-08T19:45:31.745Z,4.04
2018-06-08T19:51:26.606Z,4.2
2018-06-08T19:57:21.886Z,5
2018-06-08T20:03:16.656Z,4.46
2018-06-08T20:09:12.752Z,3.9
2018-06-08T20:15:06.960Z,4.06
2018-06-08T20:21:01.660Z,4.75
2018-06-08T20:26:57.922Z,4.47
2018-06-08T20:32:51.628Z,4.87
2018-06-08T20:38:47.030Z,3.7
2018-06-08T20:44:41.658Z,3.57
2018-06-08T20:50:36.649Z,2.77
2018-06-08T20:56:32.022Z,3.69
2018-06-08T21:02:26.759Z,3.74
2018-06-08T21:08:21.661Z,3.57
2018-06-08T21:14:16.667Z,2.53
2018-06-08T21:20:11.737Z,2.51
2018-06-08T21:26:06.802Z,2.76
2018-06-08T21:32:01.686Z,2.78
2018-06-08T21:37:56.754Z,2.23
2018-06-08T21:43:51.688Z,3.39
2018-06-08T21:49:46.795Z,2.78
2018-06-08T21:55:41.747Z,2.57
2018-06-08T22:01:36.726Z,2.86
2018-06-08T22:07:32.055Z,2.71
2018-06-08T22:13:26.707Z,3.09
2018-06-08T22:19:21.841Z,2.72
2018-06-08T22:25:16.695Z,2.75
2018-06-08T22:31:11.774Z,2.52
2018-06-08T22:37:06.754Z,2.79
2018-06-08T22:43:01.706Z,3.09
2018-06-08T22:48:56.726Z,2.67
2018-06-08T22:54:51.738Z,2.17
2018-06-08T23:00:46.863Z,2.37
2018-06-08T23:06:43.126Z,2.6
2018-06-08T23:12:36.953Z,2.67
2018-06-08T23:18:31.727Z,2.16
2018-06-08T23:24:26.857Z,1.85
2018-06-08T23:30:26.042Z,2.45
2018-06-08T23:36:16.731Z,2.29
2018-06-08T23:42:11.754Z,2.34
2018-06-08T23:48:06.749Z,2.15
2018-06-08T23:54:01.822Z,3.14
2018-06-08T23:59:56.775Z,2.43
